sensor_id;sensor_type;location;lat;lon;timestamp;pressure;altitude;pressure_sealevel;temperature;humidity
25084;BME280;13075;55.682;37.564;2022-07-22T00:00:31;99130.69;;;17.99;100.00
25084;BME280;13075;55.682;37.564;2022-07-22T00:02:57;99128.53;;;17.96;100.00
25084;BME280;13075;55.682;37.564;2022-07-22T00:05:22;99120.41;;;17.96;100.00
25084;BME280;13075;55.682;37.564;2022-07-22T00:07:48;99121.47;;;17.95;100.00
25084;BME280;13075;55.682;37.564;2022-07-22T00:10:13;99127.66;;;17.90;100.00
25084;BME280;13075;55.682;37.564;2022-07-22T00:12:39;99125.50;;;17.92;100.00
25084;BME280;13075;55.682;37.564;2022-07-22T00:15:06;99135.00;;;17.95;100.00
25084;BME280;13075;55.682;37.564;2022-07-22T00:17:31;99132.03;;;17.96;100.00
25084;BME280;13075;55.682;37.564;2022-07-22T00:19:57;99128.22;;;17.92;100.00
25084;BME280;13075;55.682;37.564;2022-07-22T00:22:23;99126.06;;;17.94;100.00
25084;BME280;13075;55.682;37.564;2022-07-22T00:24:49;99132.28;;;17.95;100.00
25084;BME280;13075;55.682;37.564;2022-07-22T00:27:14;99117.94;;;17.94;100.00
25084;BME280;13075;55.682;37.564;2022-07-22T00:29:41;99112.28;;;17.96;100.00
25084;BME280;13075;55.682;37.564;2022-07-22T00:32:06;99117.75;;;18.01;100.00
25084;BME280;13075;55.682;37.564;2022-07-22T00:34:32;99123.44;;;18.04;100.00
25084;BME280;13075;55.682;37.564;2022-07-22T00:36:58;99121.81;;;18.03;100.00
25084;BME280;13075;55.682;37.564;2022-07-22T00:39:23;99112.06;;;18.02;100.00
25084;BME280;13075;55.682;37.564;2022-07-22T00:41:49;99120.44;;;18.01;100.00
25084;BME280;13075;55.682;37.564;2022-07-22T00:44:15;99122.84;;;17.97;100.00
25084;BME280;13075;55.682;37.564;2022-07-22T00:46:41;99125.81;;;17.96;100.00
25084;BME280;13075;55.682;37.564;2022-07-22T00:49:08;99125.81;;;17.96;100.00
25084;BME280;13075;55.682;37.564;2022-07-22T00:51:35;99123.66;;;17.98;100.00
25084;BME280;13075;55.682;37.564;2022-07-22T00:54:03;99129.88;;;17.93;100.00
25084;BME280;13075;55.682;37.564;2022-07-22T00:56:29;99116.59;;;17.97;100.00
25084;BME280;13075;55.682;37.564;2022-07-22T00:58:57;99116.91;;;18.00;100.00
25084;BME280;13075;55.682;37.564;2022-07-22T01:01:23;99116.09;;;18.00;100.00
25084;BME280;13075;55.682;37.564;2022-07-22T01:03:49;99124.50;;;17.98;100.00
25084;BME280;13075;55.682;37.564;2022-07-22T01:06:15;99125.28;;;17.99;100.00
25084;BME280;13075;55.682;37.564;2022-07-22T01:08:42;99132.03;;;17.96;100.00
25084;BME280;13075;55.682;37.564;2022-07-22T01:11:09;99126.16;;;18.04;100.00
25084;BME280;13075;55.682;37.564;2022-07-22T01:13:35;99132.66;;;18.03;100.00
25084;BME280;13075;55.682;37.564;2022-07-22T01:16:03;99124.56;;;18.09;100.00
25084;BME280;13075;55.682;37.564;2022-07-22T01:18:28;99135.13;;;18.10;100.00
25084;BME280;13075;55.682;37.564;2022-07-22T01:20:54;99134.03;;;18.06;100.00
25084;BME280;13075;55.682;37.564;2022-07-22T01:23:20;99140.78;;;18.03;100.00
25084;BME280;13075;55.682;37.564;2022-07-22T01:25:46;99135.31;;;17.98;100.00
25084;BME280;13075;55.682;37.564;2022-07-22T01:28:11;99132.03;;;17.96;100.00
25084;BME280;13075;55.682;37.564;2022-07-22T01:30:37;99138.81;;;17.99;100.00
25084;BME280;13075;55.682;37.564;2022-07-22T01:33:02;99143.41;;;17.93;100.00
25084;BME280;13075;55.682;37.564;2022-07-22T01:35:28;99143.91;;;17.90;100.00
25084;BME280;13075;55.682;37.564;2022-07-22T01:37:54;99150.94;;;17.91;100.00
25084;BME280;13075;55.682;37.564;2022-07-22T01:40:20;99169.38;;;17.94;100.00
25084;BME280;13075;55.682;37.564;2022-07-22T01:42:46;99159.91;;;17.97;100.00
25084;BME280;13075;55.682;37.564;2022-07-22T01:45:11;99157.75;;;17.99;100.00
25084;BME280;13075;55.682;37.564;2022-07-22T01:47:37;99155.59;;;17.96;100.00
25084;BME280;13075;55.682;37.564;2022-07-22T01:50:05;99157.22;;;17.97;100.00
25084;BME280;13075;55.682;37.564;2022-07-22T01:52:33;99151.28;;;18.00;100.00
25084;BME280;13075;55.682;37.564;2022-07-22T01:54:59;99155.91;;;18.04;100.00
25084;BME280;13075;55.682;37.564;2022-07-22T01:57:25;99149.69;;;18.04;100.00
25084;BME280;13075;55.682;37.564;2022-07-22T01:59:52;99149.44;;;18.05;100.00
25084;BME280;13075;55.682;37.564;2022-07-22T02:02:17;99154.03;;;18.05;100.00
25084;BME280;13075;55.682;37.564;2022-07-22T02:04:43;99157.00;;;18.03;100.00
25084;BME280;13075;55.682;37.564;2022-07-22T02:07:09;99158.13;;;18.08;100.00
25084;BME280;13075;55.682;37.564;2022-07-22T02:09:35;99147.81;;;18.04;100.00
25084;BME280;13075;55.682;37.564;2022-07-22T02:12:01;99153.53;;;18.08;100.00
25084;BME280;13075;55.682;37.564;2022-07-22T02:14:29;99161.06;;;18.01;100.00
25084;BME280;13075;55.682;37.564;2022-07-22T02:16:55;99155.09;;;18.04;100.00
25084;BME280;13075;55.682;37.564;2022-07-22T02:19:20;99157.06;;;18.09;100.00
25084;BME280;13075;55.682;37.564;2022-07-22T02:21:46;99169.78;;;18.08;100.00
25084;BME280;13075;55.682;37.564;2022-07-22T02:24:12;99163.53;;;18.08;100.00
25084;BME280;13075;55.682;37.564;2022-07-22T02:26:37;99174.88;;;18.04;100.00
25084;BME280;13075;55.682;37.564;2022-07-22T02:29:03;99168.72;;;18.09;100.00
25084;BME280;13075;55.682;37.564;2022-07-22T02:31:29;99180.09;;;18.11;100.00
25084;BME280;13075;55.682;37.564;2022-07-22T02:33:54;99182.75;;;18.06;100.00
25084;BME280;13075;55.682;37.564;2022-07-22T02:36:22;99182.75;;;18.06;100.00
25084;BME280;13075;55.682;37.564;2022-07-22T02:38:48;99181.44;;;18.09;100.00
25084;BME280;13075;55.682;37.564;2022-07-22T02:41:14;99186.31;;;18.12;100.00
25084;BME280;13075;55.682;37.564;2022-07-22T02:43:47;99190.91;;;18.11;100.00
25084;BME280;13075;55.682;37.564;2022-07-22T02:46:13;99191.16;;;18.10;100.00
25084;BME280;13075;55.682;37.564;2022-07-22T02:48:39;99182.75;;;18.06;100.00
25084;BME280;13075;55.682;37.564;2022-07-22T02:51:07;99193.59;;;18.06;100.00
25084;BME280;13075;55.682;37.564;2022-07-22T02:53:32;99197.84;;;18.02;100.00
25084;BME280;13075;55.682;37.564;2022-07-22T02:55:59;99204.13;;;18.08;100.00
25084;BME280;13075;55.682;37.564;2022-07-22T02:58:25;99200.88;;;18.05;100.00
25084;BME280;13075;55.682;37.564;2022-07-22T03:00:50;99206.25;;;18.00;100.00
25084;BME280;13075;55.682;37.564;2022-07-22T03:03:16;99206.50;;;17.99;100.00
25084;BME280;13075;55.682;37.564;2022-07-22T03:05:42;99208.69;;;18.02;100.00
25084;BME280;13075;55.682;37.564;2022-07-22T03:08:22;99219.22;;;17.98;100.00
25084;BME280;13075;55.682;37.564;2022-07-22T03:10:48;99216.56;;;18.03;100.00
25084;BME280;13075;55.682;37.564;2022-07-22T03:13:14;99214.09;;;18.02;100.00
25084;BME280;13075;55.682;37.564;2022-07-22T03:15:39;99223.88;;;18.03;100.00
25084;BME280;13075;55.682;37.564;2022-07-22T03:18:05;99213.50;;;18.22;100.00
25084;BME280;13075;55.682;37.564;2022-07-22T03:20:31;99223.72;;;18.46;100.00
25084;BME280;13075;55.682;37.564;2022-07-22T03:22:59;99211.41;;;18.60;100.00
25084;BME280;13075;55.682;37.564;2022-07-22T03:25:25;99212.41;;;18.91;100.00
25084;BME280;13075;55.682;37.564;2022-07-22T03:27:51;99220.97;;;19.82;100.00
25084;BME280;13075;55.682;37.564;2022-07-22T03:30:16;99191.88;;;21.78;100.00
25084;BME280;13075;55.682;37.564;2022-07-22T03:32:42;99192.53;;;20.50;100.00
25084;BME280;13075;55.682;37.564;2022-07-22T03:35:13;99199.53;;;20.01;100.00
25084;BME280;13075;55.682;37.564;2022-07-22T03:37:42;99218.78;;;19.69;100.00
25084;BME280;13075;55.682;37.564;2022-07-22T03:40:09;99215.84;;;20.21;100.00
25084;BME280;13075;55.682;37.564;2022-07-22T03:42:37;99221.56;;;20.14;100.00
25084;BME280;13075;55.682;37.564;2022-07-22T03:45:03;99218.81;;;19.84;100.00
25084;BME280;13075;55.682;37.564;2022-07-22T03:47:37;99223.41;;;19.78;100.00
25084;BME280;13075;55.682;37.564;2022-07-22T03:50:03;99232.13;;;19.96;100.00
25084;BME280;13075;55.682;37.564;2022-07-22T03:52:29;99228.88;;;19.99;100.00
25084;BME280;13075;55.682;37.564;2022-07-22T03:54:56;99240.25;;;19.85;100.00
25084;BME280;13075;55.682;37.564;2022-07-22T03:57:22;99231.56;;;19.78;100.00
25084;BME280;13075;55.682;37.564;2022-07-22T03:59:57;99240.63;;;19.37;100.00
25084;BME280;13075;55.682;37.564;2022-07-22T04:02:23;99240.03;;;19.30;100.00
25084;BME280;13075;55.682;37.564;2022-07-22T04:04:49;99248.13;;;19.25;100.00
25084;BME280;13075;55.682;37.564;2022-07-22T04:07:16;99250.56;;;19.26;100.00
25084;BME280;13075;55.682;37.564;2022-07-22T04:09:41;99247.00;;;19.21;100.00
25084;BME280;13075;55.682;37.564;2022-07-22T04:12:07;99250.84;;;19.25;100.00
25084;BME280;13075;55.682;37.564;2022-07-22T04:14:43;99249.78;;;19.31;100.00
25084;BME280;13075;55.682;37.564;2022-07-22T04:17:08;99247.88;;;19.32;100.00
25084;BME280;13075;55.682;37.564;2022-07-22T04:19:34;99246.81;;;19.33;100.00
25084;BME280;13075;55.682;37.564;2022-07-22T04:22:08;99253.38;;;19.42;100.00
25084;BME280;13075;55.682;37.564;2022-07-22T04:24:35;99249.59;;;19.43;100.00
25084;BME280;13075;55.682;37.564;2022-07-22T04:27:01;99256.94;;;19.47;100.00
25084;BME280;13075;55.682;37.564;2022-07-22T04:29:26;99254.66;;;19.91;100.00
25084;BME280;13075;55.682;37.564;2022-07-22T04:31:52;99247.09;;;20.08;100.00
25084;BME280;13075;55.682;37.564;2022-07-22T04:34:20;99249.78;;;20.08;100.00
25084;BME280;13075;55.682;37.564;2022-07-22T04:36:48;99262.50;;;19.87;100.00
25084;BME280;13075;55.682;37.564;2022-07-22T04:39:14;99258.22;;;19.97;100.00
25084;BME280;13075;55.682;37.564;2022-07-22T04:41:46;99257.09;;;19.92;100.00
25084;BME280;13075;55.682;37.564;2022-07-22T04:44:15;99269.88;;;19.92;100.00
25084;BME280;13075;55.682;37.564;2022-07-22T04:46:41;99247.34;;;19.92;100.00
25084;BME280;13075;55.682;37.564;2022-07-22T04:49:07;99249.00;;;20.03;100.00
25084;BME280;13075;55.682;37.564;2022-07-22T04:51:33;99256.03;;;20.04;100.00
25084;BME280;13075;55.682;37.564;2022-07-22T04:54:03;99249.53;;;20.10;100.00
25084;BME280;13075;55.682;37.564;2022-07-22T04:56:29;99263.69;;;20.17;100.00
25084;BME280;13075;55.682;37.564;2022-07-22T04:58:55;99254.75;;;20.26;100.00
25084;BME280;13075;55.682;37.564;2022-07-22T05:01:23;99264.00;;;20.30;100.00
25084;BME280;13075;55.682;37.564;2022-07-22T05:03:49;99270.25;;;20.26;100.00
25084;BME280;13075;55.682;37.564;2022-07-22T05:06:17;99269.97;;;20.27;100.00
25084;BME280;13075;55.682;37.564;2022-07-22T05:08:43;99273.78;;;20.36;100.00
25084;BME280;13075;55.682;37.564;2022-07-22T05:11:09;99277.06;;;20.38;100.00
25084;BME280;13075;55.682;37.564;2022-07-22T05:13:35;99268.63;;;20.50;100.00
25084;BME280;13075;55.682;37.564;2022-07-22T05:16:04;99283.06;;;20.50;100.00
25084;BME280;13075;55.682;37.564;2022-07-22T05:18:33;99268.38;;;20.52;100.00
25084;BME280;13075;55.682;37.564;2022-07-22T05:21:00;99270.00;;;20.73;100.00
25084;BME280;13075;55.682;37.564;2022-07-22T05:23:26;99277.91;;;20.74;100.00
25084;BME280;13075;55.682;37.564;2022-07-22T05:25:52;99268.91;;;20.84;100.00
25084;BME280;13075;55.682;37.564;2022-07-22T05:28:18;99280.31;;;20.86;100.00
25084;BME280;13075;55.682;37.564;2022-07-22T05:30:46;99279.50;;;20.80;100.00
25084;BME280;13075;55.682;37.564;2022-07-22T05:33:14;99256.94;;;20.95;100.00
25084;BME280;13075;55.682;37.564;2022-07-22T05:35:57;99262.09;;;21.06;100.00
25084;BME280;13075;55.682;37.564;2022-07-22T05:38:28;99271.06;;;21.12;100.00
25084;BME280;13075;55.682;37.564;2022-07-22T05:40:57;99268.59;;;21.26;100.00
25084;BME280;13075;55.682;37.564;2022-07-22T05:43:22;99268.56;;;21.36;100.00
25084;BME280;13075;55.682;37.564;2022-07-22T05:45:48;99268.00;;;21.44;100.00
25084;BME280;13075;55.682;37.564;2022-07-22T05:48:14;99269.44;;;21.95;100.00
25084;BME280;13075;55.682;37.564;2022-07-22T05:50:40;99275.69;;;22.01;100.00
25084;BME280;13075;55.682;37.564;2022-07-22T05:53:24;99278.97;;;21.98;100.00
25084;BME280;13075;55.682;37.564;2022-07-22T05:55:50;99279.22;;;22.01;100.00
25084;BME280;13075;55.682;37.564;2022-07-22T05:58:16;99266.09;;;22.08;100.00
25084;BME280;13075;55.682;37.564;2022-07-22T06:00:42;99271.78;;;22.12;100.00
25084;BME280;13075;55.682;37.564;2022-07-22T06:03:08;99269.09;;;22.07;100.00
25084;BME280;13075;55.682;37.564;2022-07-22T06:05:34;99269.53;;;22.24;100.00
25084;BME280;13075;55.682;37.564;2022-07-22T06:08:04;99275.69;;;22.45;100.00
25084;BME280;13075;55.682;37.564;2022-07-22T06:10:43;99269.75;;;22.71;100.00
25084;BME280;13075;55.682;37.564;2022-07-22T06:13:08;99268.88;;;22.81;100.00
25084;BME280;13075;55.682;37.564;2022-07-22T06:15:34;99270.03;;;22.70;100.00
25084;BME280;13075;55.682;37.564;2022-07-22T06:18:01;99271.41;;;23.01;100.00
25084;BME280;13075;55.682;37.564;2022-07-22T06:20:27;99261.97;;;23.65;100.00
25084;BME280;13075;55.682;37.564;2022-07-22T06:22:52;99273.84;;;23.79;100.00
25084;BME280;13075;55.682;37.564;2022-07-22T06:25:18;99266.41;;;23.61;100.00
25084;BME280;13075;55.682;37.564;2022-07-22T06:27:44;99269.22;;;23.55;100.00
25084;BME280;13075;55.682;37.564;2022-07-22T06:30:10;99272.91;;;23.65;100.00
25084;BME280;13075;55.682;37.564;2022-07-22T06:32:37;99271.69;;;23.76;100.00
25084;BME280;13075;55.682;37.564;2022-07-22T06:35:06;99271.56;;;23.86;100.00
25084;BME280;13075;55.682;37.564;2022-07-22T06:37:32;99273.69;;;23.89;100.00
25084;BME280;13075;55.682;37.564;2022-07-22T06:39:58;99272.00;;;24.86;100.00
25084;BME280;13075;55.682;37.564;2022-07-22T06:42:43;99273.56;;;24.73;100.00
25084;BME280;13075;55.682;37.564;2022-07-22T06:45:27;99272.75;;;25.05;100.00
25084;BME280;13075;55.682;37.564;2022-07-22T06:47:53;99270.66;;;25.43;100.00
25084;BME280;13075;55.682;37.564;2022-07-22T06:50:19;99261.06;;;25.73;100.00
25084;BME280;13075;55.682;37.564;2022-07-22T06:52:44;99256.66;;;27.63;100.00
25084;BME280;13075;55.682;37.564;2022-07-22T06:55:10;99253.84;;;32.38;94.75
25084;BME280;13075;55.682;37.564;2022-07-22T06:57:41;99253.34;;;33.62;71.66
25084;BME280;13075;55.682;37.564;2022-07-22T07:00:09;99253.94;;;37.12;50.58
25084;BME280;13075;55.682;37.564;2022-07-22T07:02:49;99234.09;;;39.79;38.99
25084;BME280;13075;55.682;37.564;2022-07-22T07:05:15;99235.28;;;39.92;39.36
25084;BME280;13075;55.682;37.564;2022-07-22T07:07:40;99241.38;;;40.81;38.57
25084;BME280;13075;55.682;37.564;2022-07-22T07:10:06;99232.38;;;43.04;33.70
25084;BME280;13075;55.682;37.564;2022-07-22T07:12:43;99255.69;;;38.29;42.53
25084;BME280;13075;55.682;37.564;2022-07-22T07:15:09;99244.75;;;36.11;48.02
25084;BME280;13075;55.682;37.564;2022-07-22T07:17:35;99243.22;;;40.29;38.04
25084;BME280;13075;55.682;37.564;2022-07-22T07:20:05;99238.75;;;41.22;34.96
25084;BME280;13075;55.682;37.564;2022-07-22T07:22:32;99246.94;;;42.35;33.26
25084;BME280;13075;55.682;37.564;2022-07-22T07:25:05;99244.25;;;43.42;28.81
25084;BME280;13075;55.682;37.564;2022-07-22T07:27:32;99244.84;;;38.13;39.69
25084;BME280;13075;55.682;37.564;2022-07-22T07:29:58;99256.84;;;33.59;58.14
25084;BME280;13075;55.682;37.564;2022-07-22T07:32:25;99256.38;;;33.42;60.58
25084;BME280;13075;55.682;37.564;2022-07-22T07:34:51;99258.91;;;33.03;61.37
25084;BME280;13075;55.682;37.564;2022-07-22T07:37:16;99244.81;;;33.24;63.49
25084;BME280;13075;55.682;37.564;2022-07-22T07:39:42;99253.91;;;36.71;46.52
25084;BME280;13075;55.682;37.564;2022-07-22T07:42:08;99244.47;;;35.45;47.02
25084;BME280;13075;55.682;37.564;2022-07-22T07:44:34;99246.84;;;40.12;35.81
25084;BME280;13075;55.682;37.564;2022-07-22T07:47:01;99246.00;;;38.84;36.36
25084;BME280;13075;55.682;37.564;2022-07-22T07:49:27;99249.47;;;37.00;39.49
25084;BME280;13075;55.682;37.564;2022-07-22T07:51:53;99245.69;;;33.91;49.20
25084;BME280;13075;55.682;37.564;2022-07-22T07:54:19;99248.75;;;33.85;50.46
25084;BME280;13075;55.682;37.564;2022-07-22T07:56:45;99245.19;;;34.96;45.68
25084;BME280;13075;55.682;37.564;2022-07-22T07:59:12;99248.94;;;34.66;46.63
25084;BME280;13075;55.682;37.564;2022-07-22T08:01:39;99254.69;;;35.86;41.91
25084;BME280;13075;55.682;37.564;2022-07-22T08:04:05;99252.75;;;40.42;34.22
25084;BME280;13075;55.682;37.564;2022-07-22T08:06:31;99259.50;;;41.86;30.70
25084;BME280;13075;55.682;37.564;2022-07-22T08:08:56;99248.63;;;44.75;27.22
25084;BME280;13075;55.682;37.564;2022-07-22T08:11:30;99233.34;;;44.53;27.79
25084;BME280;13075;55.682;37.564;2022-07-22T08:14:18;99247.88;;;42.25;28.48
25084;BME280;13075;55.682;37.564;2022-07-22T08:17:03;99242.44;;;43.55;27.94
25084;BME280;13075;55.682;37.564;2022-07-22T08:19:30;99241.44;;;44.90;26.55
25084;BME280;13075;55.682;37.564;2022-07-22T08:21:55;99254.50;;;41.05;30.74
25084;BME280;13075;55.682;37.564;2022-07-22T08:24:29;99248.34;;;36.42;38.97
25084;BME280;13075;55.682;37.564;2022-07-22T08:26:58;99260.81;;;36.84;39.97
25084;BME280;13075;55.682;37.564;2022-07-22T08:29:24;99258.50;;;41.62;30.14
25084;BME280;13075;55.682;37.564;2022-07-22T08:31:51;99245.94;;;43.86;26.95
25084;BME280;13075;55.682;37.564;2022-07-22T08:34:19;99252.78;;;43.12;28.00
25084;BME280;13075;55.682;37.564;2022-07-22T08:36:45;99254.69;;;35.86;37.67
25084;BME280;13075;55.682;37.564;2022-07-22T08:39:11;99252.00;;;34.41;43.50
25084;BME280;13075;55.682;37.564;2022-07-22T08:41:38;99262.59;;;32.40;52.79
25084;BME280;13075;55.682;37.564;2022-07-22T08:44:05;99263.97;;;31.58;58.67
25084;BME280;13075;55.682;37.564;2022-07-22T08:46:32;99267.91;;;30.79;64.68
25084;BME280;13075;55.682;37.564;2022-07-22T08:49:21;99262.53;;;30.62;66.25
25084;BME280;13075;55.682;37.564;2022-07-22T08:52:10;99265.44;;;30.03;68.25
25084;BME280;13075;55.682;37.564;2022-07-22T08:54:38;99281.97;;;29.36;74.47
25084;BME280;13075;55.682;37.564;2022-07-22T08:57:04;99278.16;;;28.86;82.19
25084;BME280;13075;55.682;37.564;2022-07-22T08:59:30;99282.22;;;28.37;91.63
25084;BME280;13075;55.682;37.564;2022-07-22T09:02:08;99276.38;;;28.21;94.27
25084;BME280;13075;55.682;37.564;2022-07-22T09:04:57;99272.63;;;28.00;94.76
25084;BME280;13075;55.682;37.564;2022-07-22T09:07:36;99273.16;;;28.28;93.96
25084;BME280;13075;55.682;37.564;2022-07-22T09:10:11;99278.47;;;29.01;84.74
25084;BME280;13075;55.682;37.564;2022-07-22T09:13:10;99277.03;;;28.27;92.02
25084;BME280;13075;55.682;37.564;2022-07-22T09:15:52;99288.88;;;28.70;87.97
25084;BME280;13075;55.682;37.564;2022-07-22T09:18:51;99281.41;;;28.96;83.83
25084;BME280;13075;55.682;37.564;2022-07-22T09:21:29;99286.78;;;28.84;84.75
25084;BME280;13075;55.682;37.564;2022-07-22T09:24:31;99290.59;;;28.06;93.04
25084;BME280;13075;55.682;37.564;2022-07-22T09:27:05;99280.28;;;27.64;95.58
25084;BME280;13075;55.682;37.564;2022-07-22T09:29:49;99271.53;;;27.62;100.00
25084;BME280;13075;55.682;37.564;2022-07-22T09:32:17;99280.59;;;27.62;100.00
25084;BME280;13075;55.682;37.564;2022-07-22T09:35:02;99280.59;;;27.54;100.00
25084;BME280;13075;55.682;37.564;2022-07-22T09:37:30;99285.13;;;27.05;100.00
25084;BME280;13075;55.682;37.564;2022-07-22T09:40:11;99288.09;;;26.87;100.00
25084;BME280;13075;55.682;37.564;2022-07-22T09:42:46;99286.00;;;27.14;100.00
25084;BME280;13075;55.682;37.564;2022-07-22T09:45:12;99278.09;;;27.92;100.00
25084;BME280;13075;55.682;37.564;2022-07-22T09:47:44;99284.72;;;27.91;100.00
25084;BME280;13075;55.682;37.564;2022-07-22T09:50:34;99284.41;;;27.44;100.00
25084;BME280;13075;55.682;37.564;2022-07-22T09:53:38;99282.97;;;27.47;100.00
25084;BME280;13075;55.682;37.564;2022-07-22T09:56:07;99289.78;;;28.06;96.98
25084;BME280;13075;55.682;37.564;2022-07-22T09:58:34;99284.59;;;29.07;81.74
25084;BME280;13075;55.682;37.564;2022-07-22T10:01:04;99282.16;;;29.31;89.65
25084;BME280;13075;55.682;37.564;2022-07-22T10:03:33;99290.31;;;28.51;92.96
25084;BME280;13075;55.682;37.564;2022-07-22T10:06:02;99293.03;;;27.60;100.00
25084;BME280;13075;55.682;37.564;2022-07-22T10:08:31;99293.78;;;27.12;100.00
25084;BME280;13075;55.682;37.564;2022-07-22T10:11:02;99299.38;;;26.63;100.00
25084;BME280;13075;55.682;37.564;2022-07-22T10:13:29;99296.91;;;26.39;100.00
25084;BME280;13075;55.682;37.564;2022-07-22T10:15:56;99292.28;;;26.13;100.00
25084;BME280;13075;55.682;37.564;2022-07-22T10:18:23;99305.59;;;25.92;100.00
25084;BME280;13075;55.682;37.564;2022-07-22T10:21:01;99297.75;;;25.99;100.00
25084;BME280;13075;55.682;37.564;2022-07-22T10:23:27;99297.78;;;26.13;100.00
25084;BME280;13075;55.682;37.564;2022-07-22T10:25:56;99293.00;;;26.18;100.00
25084;BME280;13075;55.682;37.564;2022-07-22T10:28:28;99298.59;;;26.13;100.00
25084;BME280;13075;55.682;37.564;2022-07-22T10:31:18;99298.63;;;25.86;100.00
25084;BME280;13075;55.682;37.564;2022-07-22T10:33:46;99289.88;;;25.57;100.00
25084;BME280;13075;55.682;37.564;2022-07-22T10:36:12;99307.22;;;25.66;100.00
25084;BME280;13075;55.682;37.564;2022-07-22T10:39:06;99306.53;;;26.01;100.00
25084;BME280;13075;55.682;37.564;2022-07-22T10:41:38;99299.78;;;26.56;100.00
25084;BME280;13075;55.682;37.564;2022-07-22T10:44:05;99299.75;;;26.92;100.00
25084;BME280;13075;55.682;37.564;2022-07-22T10:46:51;99306.94;;;26.44;100.00
25084;BME280;13075;55.682;37.564;2022-07-22T10:49:18;99304.38;;;26.12;100.00
25084;BME280;13075;55.682;37.564;2022-07-22T10:52:12;99314.75;;;25.87;100.00
25084;BME280;13075;55.682;37.564;2022-07-22T10:55:26;99313.03;;;25.64;100.00
25084;BME280;13075;55.682;37.564;2022-07-22T10:57:50;99308.66;;;25.63;100.00
25084;BME280;13075;55.682;37.564;2022-07-22T11:00:16;99308.44;;;25.73;100.00
25084;BME280;13075;55.682;37.564;2022-07-22T11:02:43;99300.53;;;25.85;100.00
25084;BME280;13075;55.682;37.564;2022-07-22T11:05:09;99298.91;;;25.84;100.00
25084;BME280;13075;55.682;37.564;2022-07-22T11:07:44;99300.94;;;25.79;100.00
25084;BME280;13075;55.682;37.564;2022-07-22T11:10:13;99300.47;;;26.40;100.00
25084;BME280;13075;55.682;37.564;2022-07-22T11:12:40;99293.66;;;26.95;100.00
25084;BME280;13075;55.682;37.564;2022-07-22T11:15:06;99295.44;;;27.22;100.00
25084;BME280;13075;55.682;37.564;2022-07-22T11:17:32;99294.47;;;27.27;100.00
25084;BME280;13075;55.682;37.564;2022-07-22T11:20:05;99295.28;;;26.96;100.00
25084;BME280;13075;55.682;37.564;2022-07-22T11:22:31;99310.84;;;26.65;100.00
25084;BME280;13075;55.682;37.564;2022-07-22T11:24:59;99301.09;;;26.37;100.00
25084;BME280;13075;55.682;37.564;2022-07-22T11:27:26;99300.28;;;26.36;100.00
25084;BME280;13075;55.682;37.564;2022-07-22T11:29:53;99298.91;;;26.47;100.00
25084;BME280;13075;55.682;37.564;2022-07-22T11:32:20;99306.91;;;26.57;100.00
25084;BME280;13075;55.682;37.564;2022-07-22T11:34:46;99303.59;;;26.69;100.00
25084;BME280;13075;55.682;37.564;2022-07-22T11:37:20;99296.66;;;26.72;100.00
25084;BME280;13075;55.682;37.564;2022-07-22T11:39:48;99298.84;;;26.97;100.00
25084;BME280;13075;55.682;37.564;2022-07-22T11:42:14;99294.75;;;27.16;100.00
25084;BME280;13075;55.682;37.564;2022-07-22T11:44:39;99295.00;;;27.06;100.00
25084;BME280;13075;55.682;37.564;2022-07-22T11:47:07;99292.69;;;27.00;100.00
25084;BME280;13075;55.682;37.564;2022-07-22T11:49:35;99293.19;;;26.57;100.00
25084;BME280;13075;55.682;37.564;2022-07-22T11:52:03;99297.63;;;26.67;100.00
25084;BME280;13075;55.682;37.564;2022-07-22T11:54:29;99296.22;;;26.92;100.00
25084;BME280;13075;55.682;37.564;2022-07-22T11:56:55;99291.16;;;26.85;100.00
25084;BME280;13075;55.682;37.564;2022-07-22T11:59:21;99285.78;;;26.80;100.00
25084;BME280;13075;55.682;37.564;2022-07-22T12:01:48;99296.56;;;26.77;100.00
25084;BME280;13075;55.682;37.564;2022-07-22T12:04:16;99287.31;;;26.86;100.00
25084;BME280;13075;55.682;37.564;2022-07-22T12:06:43;99302.88;;;26.77;100.00
25084;BME280;13075;55.682;37.564;2022-07-22T12:09:12;99297.53;;;26.58;100.00
25084;BME280;13075;55.682;37.564;2022-07-22T12:11:41;99283.28;;;26.48;100.00
25084;BME280;13075;55.682;37.564;2022-07-22T12:14:12;99283.69;;;26.41;100.00
25084;BME280;13075;55.682;37.564;2022-07-22T12:16:38;99294.94;;;26.18;100.00
25084;BME280;13075;55.682;37.564;2022-07-22T12:19:07;99291.19;;;26.14;100.00
25084;BME280;13075;55.682;37.564;2022-07-22T12:21:35;99298.78;;;26.03;100.00
25084;BME280;13075;55.682;37.564;2022-07-22T12:24:04;99298.28;;;26.15;100.00
25084;BME280;13075;55.682;37.564;2022-07-22T12:26:47;99290.84;;;26.01;100.00
25084;BME280;13075;55.682;37.564;2022-07-22T12:29:15;99287.44;;;25.96;100.00
25084;BME280;13075;55.682;37.564;2022-07-22T12:31:45;99299.47;;;26.22;100.00
25084;BME280;13075;55.682;37.564;2022-07-22T12:34:12;99296.19;;;26.47;100.00
25084;BME280;13075;55.682;37.564;2022-07-22T12:36:38;99299.78;;;26.34;100.00
25084;BME280;13075;55.682;37.564;2022-07-22T12:39:12;99293.16;;;26.35;100.00
25084;BME280;13075;55.682;37.564;2022-07-22T12:41:46;99286.34;;;26.33;100.00
25084;BME280;13075;55.682;37.564;2022-07-22T12:44:18;99287.00;;;26.52;100.00
25084;BME280;13075;55.682;37.564;2022-07-22T12:46:46;99284.44;;;26.91;100.00
25084;BME280;13075;55.682;37.564;2022-07-22T12:49:12;99281.56;;;27.05;100.00
25084;BME280;13075;55.682;37.564;2022-07-22T12:51:37;99276.84;;;26.75;100.00